createdAt,value
2022-08-07T00:00:22.909Z,999.47
2022-08-07T00:02:34.989Z,999.48
2022-08-07T00:02:37.482Z,999.45
2022-08-07T00:03:22.902Z,999.43
2022-08-07T00:04:24.426Z,999.46
2022-08-07T00:05:23.775Z,999.45
2022-08-07T00:06:29.328Z,999.48
2022-08-07T00:07:23.189Z,999.47
2022-08-07T00:08:21.840Z,999.48
2022-08-07T00:09:22.795Z,999.50
2022-08-07T00:10:27.117Z,999.50
2022-08-07T00:11:30.041Z,999.50
2022-08-07T00:12:22.787Z,999.49
2022-08-07T00:13:23.758Z,999.45
2022-08-07T00:14:21.778Z,999.45
2022-08-07T00:15:21.787Z,999.45
2022-08-07T00:16:21.741Z,999.44
2022-08-07T00:17:22.740Z,999.42
2022-08-07T00:18:24.420Z,999.42
2022-08-07T00:19:26.147Z,999.38
2022-08-07T00:20:22.718Z,999.42
2022-08-07T00:21:56.222Z,999.42
2022-08-07T00:22:24.637Z,999.40
2022-08-07T00:23:22.670Z,999.39
2022-08-07T00:24:21.671Z,999.40
2022-08-07T00:25:21.666Z,999.38
2022-08-07T00:26:55.485Z,999.38
2022-08-07T00:27:22.674Z,999.34
2022-08-07T00:28:21.963Z,999.38
2022-08-07T00:29:23.413Z,999.36
2022-08-07T00:30:27.331Z,999.34
2022-08-07T00:31:22.591Z,999.34
2022-08-07T00:32:28.216Z,999.33
2022-08-07T00:33:22.591Z,999.30
2022-08-07T00:34:21.589Z,999.30
2022-08-07T00:35:23.098Z,999.31
2022-08-07T00:36:21.542Z,999.32
2022-08-07T00:37:22.680Z,999.33
2022-08-07T00:38:31.280Z,999.33
2022-08-07T00:39:22.605Z,999.30
2022-08-07T00:40:39.523Z,999.30
2022-08-07T00:41:22.486Z,999.28
2022-08-07T00:42:29.087Z,999.25
2022-08-07T00:44:00.387Z,999.28
2022-08-07T00:44:22.472Z,999.22
2022-08-07T00:45:21.531Z,999.23
2022-08-07T00:46:22.473Z,999.21
2022-08-07T00:48:07.916Z,999.20
2022-08-07T00:48:25.126Z,999.21
2022-08-07T00:50:16.740Z,999.13
2022-08-07T00:50:46.497Z,999.21
2022-08-07T00:51:22.383Z,999.17
2022-08-07T00:52:22.362Z,999.15
2022-08-07T00:53:21.363Z,999.13
2022-08-07T00:54:22.419Z,999.15
2022-08-07T00:55:25.583Z,999.14
2022-08-07T00:56:22.343Z,999.10
2022-08-07T00:57:21.334Z,999.11
2022-08-07T00:58:21.307Z,999.15
2022-08-07T00:59:35.313Z,999.16
2022-08-07T01:00:22.314Z,999.15
2022-08-07T01:01:21.387Z,999.14
2022-08-07T01:02:28.370Z,999.17
2022-08-07T01:03:25.491Z,999.17
2022-08-07T01:04:25.005Z,999.20
2022-08-07T01:05:24.626Z,999.15
2022-08-07T01:06:21.850Z,999.18
2022-08-07T01:07:21.214Z,999.13
2022-08-07T01:08:21.204Z,999.11
2022-08-07T01:10:04.586Z,999.12
2022-08-07T01:10:22.184Z,999.15
2022-08-07T01:12:27.623Z,999.12
2022-08-07T01:12:29.743Z,999.18
2022-08-07T01:13:22.197Z,999.10
2022-08-07T01:14:28.718Z,999.12
2022-08-07T01:15:22.138Z,999.11
2022-08-07T01:16:30.262Z,999.13
2022-08-07T01:17:22.196Z,999.12
2022-08-07T01:18:21.115Z,999.08
2022-08-07T01:19:21.137Z,999.08
2022-08-07T01:20:21.088Z,999.06
2022-08-07T01:21:22.718Z,999.08
2022-08-07T01:22:22.963Z,999.05
2022-08-07T01:23:25.505Z,999.07
2022-08-07T01:24:22.311Z,999.05
2022-08-07T01:25:54.544Z,999.06
2022-08-07T01:26:22.037Z,999.04
2022-08-07T01:27:21.028Z,999.05
2022-08-07T01:28:20.986Z,999.02
2022-08-07T01:29:22.037Z,999.02
2022-08-07T01:30:20.988Z,999.04
2022-08-07T01:31:21.969Z,998.97
2022-08-07T01:32:22.473Z,999.01
2022-08-07T01:33:20.959Z,999.03
2022-08-07T01:34:30.622Z,999.04
2022-08-07T01:35:24.363Z,999.08
2022-08-07T01:36:20.921Z,999.09
2022-08-07T01:37:21.918Z,999.06
2022-08-07T01:38:25.178Z,999.06
2022-08-07T01:39:21.932Z,999.06
2022-08-07T01:40:20.888Z,999.09
2022-08-07T01:41:26.031Z,999.08
2022-08-07T01:42:38.949Z,999.11
2022-08-07T01:43:21.875Z,999.09
2022-08-07T01:44:20.831Z,999.05
2022-08-07T01:45:22.958Z,999.06
2022-08-07T01:46:21.833Z,999.08
2022-08-07T01:48:17.577Z,999.11
2022-08-07T01:48:30.220Z,999.09
2022-08-07T01:49:22.144Z,999.09
2022-08-07T01:50:28.573Z,999.06
2022-08-07T01:52:02.363Z,999.06
2022-08-07T01:52:21.762Z,999.07
2022-08-07T01:53:21.947Z,999.07
2022-08-07T01:54:36.518Z,999.07
2022-08-07T01:55:22.176Z,999.06
2022-08-07T01:56:20.712Z,999.08
2022-08-07T01:57:24.239Z,999.10
2022-08-07T01:58:29.262Z,999.05
2022-08-07T01:59:21.682Z,999.07
2022-08-07T02:00:20.686Z,999.10
2022-08-07T02:01:58.830Z,999.12
2022-08-07T02:02:32.511Z,999.10
2022-08-07T02:03:32.194Z,999.17
2022-08-07T02:04:21.691Z,999.09
2022-08-07T02:05:48.320Z,999.17
2022-08-07T02:06:31.679Z,999.15
2022-08-07T02:07:21.591Z,999.16
2022-08-07T02:08:20.595Z,999.10
2022-08-07T02:09:33.916Z,999.10
2022-08-07T02:10:21.703Z,999.12
2022-08-07T02:12:02.557Z,999.13
2022-08-07T02:12:29.056Z,999.08
2022-08-07T02:13:21.543Z,999.08
2022-08-07T02:14:36.027Z,999.08
2022-08-07T02:15:21.532Z,999.10
2022-08-07T02:16:22.080Z,999.02
2022-08-07T02:17:31.558Z,999.08
2022-08-07T02:18:21.482Z,999.02
2022-08-07T02:20:05.339Z,999.03
2022-08-07T02:20:23.708Z,999.07
2022-08-07T02:21:20.453Z,999.03
2022-08-07T02:22:20.453Z,999.07
2022-08-07T02:23:23.937Z,999.07
2022-08-07T02:24:20.414Z,999.12
2022-08-07T02:25:20.437Z,999.10
2022-08-07T02:26:33.994Z,999.13
2022-08-07T02:27:21.435Z,999.14
2022-08-07T02:28:25.500Z,999.17
2022-08-07T02:29:21.875Z,999.16
2022-08-07T02:30:20.367Z,999.13
2022-08-07T02:31:28.699Z,999.14
2022-08-07T02:32:23.146Z,999.12
2022-08-07T02:33:20.344Z,999.15
2022-08-07T02:34:20.325Z,999.05
2022-08-07T02:35:20.500Z,999.08
2022-08-07T02:36:30.418Z,999.02
2022-08-07T02:37:21.285Z,999.01
2022-08-07T02:38:22.737Z,999.03
2022-08-07T02:39:43.610Z,999.04
2022-08-07T02:40:30.919Z,999.07
2022-08-07T02:41:21.828Z,999.05
2022-08-07T02:42:20.238Z,999.05
2022-08-07T02:43:20.230Z,999.04
2022-08-07T02:44:20.281Z,999.05
2022-08-07T02:45:59.378Z,999.03
2022-08-07T02:46:21.228Z,999.05
2022-08-07T02:47:45.292Z,998.99
2022-08-07T02:48:21.169Z,999.02
2022-08-07T02:49:28.733Z,999.00
2022-08-07T02:50:21.167Z,999.00
2022-08-07T02:51:41.691Z,999.01
2022-08-07T02:52:21.429Z,999.03
2022-08-07T02:53:21.140Z,999.01
2022-08-07T02:54:20.134Z,999.03
2022-08-07T02:55:28.321Z,999.03
2022-08-07T02:56:21.836Z,999.05
2022-08-07T02:57:20.098Z,999.04
2022-08-07T02:58:21.763Z,999.01
2022-08-07T02:59:24.055Z,999.03
2022-08-07T03:00:21.065Z,999.01
2022-08-07T03:01:35.499Z,998.98
2022-08-07T03:02:21.080Z,998.98
2022-08-07T03:03:20.983Z,998.95
2022-08-07T03:04:20.009Z,999.04
2022-08-07T03:05:20.870Z,998.97
2022-08-07T03:06:26.059Z,998.99
2022-08-07T03:07:21.500Z,998.93
2022-08-07T03:08:26.795Z,998.99
2022-08-07T03:09:43.512Z,999.00
2022-08-07T03:10:20.952Z,998.97
2022-08-07T03:11:20.008Z,999.00
2022-08-07T03:12:22.242Z,998.98
2022-08-07T03:13:20.259Z,998.98
2022-08-07T03:14:19.890Z,998.99
2022-08-07T03:15:30.127Z,998.97
2022-08-07T03:16:23.038Z,998.97
2022-08-07T03:17:22.239Z,998.93
2022-08-07T03:18:20.252Z,998.90
2022-08-07T03:19:20.061Z,998.91
2022-08-07T03:20:19.841Z,998.92
2022-08-07T03:21:19.832Z,998.91
2022-08-07T03:22:19.843Z,998.90
2022-08-07T03:23:19.821Z,998.90
2022-08-07T03:24:27.412Z,998.89
2022-08-07T03:25:20.996Z,998.88
2022-08-07T03:26:21.011Z,998.89
2022-08-07T03:27:30.424Z,998.89
2022-08-07T03:28:37.573Z,998.89
2022-08-07T03:29:20.752Z,998.87
2022-08-07T03:30:19.733Z,998.88
2022-08-07T03:31:19.731Z,998.85
2022-08-07T03:32:20.725Z,998.85
2022-08-07T03:33:20.202Z,998.86
2022-08-07T03:34:22.186Z,998.88
2022-08-07T03:35:26.140Z,998.90
2022-08-07T03:36:20.683Z,998.88
2022-08-07T03:37:20.664Z,998.89
2022-08-07T03:38:21.204Z,998.89
2022-08-07T03:39:45.961Z,998.94
2022-08-07T03:40:20.710Z,998.92
2022-08-07T03:41:19.654Z,998.97
2022-08-07T03:42:20.630Z,998.92
2022-08-07T03:43:19.616Z,998.92
2022-08-07T03:44:21.750Z,998.89
2022-08-07T03:45:29.961Z,998.89
2022-08-07T03:46:20.566Z,998.90
2022-08-07T03:47:20.585Z,998.84
2022-08-07T03:48:20.505Z,998.82
2022-08-07T03:49:19.565Z,998.83
2022-08-07T03:50:19.721Z,998.85
2022-08-07T03:51:20.777Z,998.82
2022-08-07T03:52:22.643Z,998.87
2022-08-07T03:53:20.505Z,998.82
2022-08-07T03:54:36.412Z,998.80
2022-08-07T03:55:20.457Z,998.84
2022-08-07T03:56:32.471Z,998.87
2022-08-07T03:59:07.478Z,998.84
2022-08-07T03:59:09.711Z,998.88
2022-08-07T03:59:20.861Z,998.88
2022-08-07T04:00:21.018Z,998.89
2022-08-07T04:01:20.408Z,998.86
2022-08-07T04:02:19.369Z,998.86
2022-08-07T04:03:19.347Z,998.87
2022-08-07T04:04:19.371Z,998.90
2022-08-07T04:05:19.358Z,998.92
2022-08-07T04:06:38.066Z,998.91
2022-08-07T04:07:22.748Z,998.89
2022-08-07T04:08:21.013Z,998.91
2022-08-07T04:09:19.446Z,998.88
2022-08-07T04:10:19.297Z,998.89
2022-08-07T04:12:27.804Z,998.85
2022-08-07T04:13:17.049Z,998.90
2022-08-07T04:14:38.401Z,998.87
2022-08-07T04:15:17.020Z,998.91
2022-08-07T04:16:16.004Z,998.90
2022-08-07T04:17:20.864Z,998.92
2022-08-07T04:18:57.368Z,998.92
2022-08-07T04:19:17.240Z,998.93
2022-08-07T04:20:16.000Z,998.95
2022-08-07T04:21:16.387Z,998.94
2022-08-07T04:22:17.690Z,998.96
2022-08-07T04:23:19.295Z,998.91
2022-08-07T04:24:30.423Z,998.87
2022-08-07T04:25:16.970Z,998.89
2022-08-07T04:26:15.908Z,998.92
2022-08-07T04:27:25.243Z,998.90
2022-08-07T04:28:16.879Z,998.92
2022-08-07T04:29:16.869Z,998.93
2022-08-07T04:30:21.318Z,998.99
2022-08-07T04:31:20.229Z,998.95
2022-08-07T04:32:15.839Z,998.98
2022-08-07T04:33:15.993Z,998.97
2022-08-07T04:34:16.932Z,998.94
2022-08-07T04:35:15.862Z,998.99
2022-08-07T04:36:15.801Z,999.03
2022-08-07T04:37:20.345Z,999.02
2022-08-07T04:38:15.792Z,999.01
2022-08-07T04:39:15.835Z,999.01
2022-08-07T04:40:15.773Z,999.03
2022-08-07T04:41:19.112Z,999.03
2022-08-07T04:42:15.750Z,999.05
2022-08-07T04:43:16.091Z,999.03
2022-08-07T04:44:18.719Z,999.05
2022-08-07T04:45:18.670Z,999.03
2022-08-07T04:46:25.724Z,999.02
2022-08-07T04:47:23.607Z,999.00
2022-08-07T04:48:17.142Z,999.04
2022-08-07T04:49:18.282Z,999.06
2022-08-07T04:50:16.673Z,998.98
2022-08-07T04:51:15.674Z,999.02
2022-08-07T04:52:18.391Z,999.08
2022-08-07T04:53:27.714Z,999.08
2022-08-07T04:54:16.648Z,999.09
2022-08-07T04:58:10.441Z,999.07
2022-08-07T04:58:14.034Z,999.08
2022-08-07T04:58:23.958Z,999.10
2022-08-07T04:58:31.473Z,999.10
2022-08-07T05:00:09.563Z,999.07
2022-08-07T05:00:30.125Z,999.07
2022-08-07T05:01:18.191Z,999.12
2022-08-07T05:02:16.885Z,999.12
2022-08-07T05:03:16.775Z,999.15
2022-08-07T05:04:17.961Z,999.17
2022-08-07T05:05:52.982Z,999.15
2022-08-07T05:06:19.879Z,999.17
2022-08-07T05:07:20.604Z,999.18
2022-08-07T05:08:16.475Z,999.19
2022-08-07T05:09:15.505Z,999.22
2022-08-07T05:10:15.487Z,999.17
2022-08-07T05:11:19.034Z,999.16
2022-08-07T05:12:15.754Z,999.15
2022-08-07T05:14:52.440Z,999.20
2022-08-07T05:14:56.531Z,999.12
2022-08-07T05:15:23.058Z,999.11
2022-08-07T05:16:16.394Z,999.11
2022-08-07T05:17:17.462Z,999.09
2022-08-07T05:18:16.456Z,999.14
2022-08-07T05:19:15.416Z,999.12
2022-08-07T05:20:15.366Z,999.09
2022-08-07T05:21:15.387Z,999.11
2022-08-07T05:22:26.824Z,999.12
2022-08-07T05:23:16.468Z,999.17
2022-08-07T05:24:15.315Z,999.14
2022-08-07T05:25:25.727Z,999.09
2022-08-07T05:26:23.756Z,999.19
2022-08-07T05:28:02.172Z,999.18
2022-08-07T05:28:22.599Z,999.17
2022-08-07T05:29:16.276Z,999.15
2022-08-07T05:30:15.258Z,999.16
2022-08-07T05:31:16.665Z,999.17
2022-08-07T05:32:15.247Z,999.21
2022-08-07T05:33:15.658Z,999.16
2022-08-07T05:34:15.847Z,999.16
2022-08-07T05:35:15.218Z,999.19
2022-08-07T05:36:22.396Z,999.16
2022-08-07T05:37:16.200Z,999.16
2022-08-07T05:38:57.957Z,999.20
2022-08-07T05:40:13.358Z,999.17
2022-08-07T05:40:18.902Z,999.16
2022-08-07T05:41:16.676Z,999.19
2022-08-07T05:42:15.187Z,999.24
2022-08-07T05:43:16.127Z,999.23
2022-08-07T05:44:15.117Z,999.25
2022-08-07T05:45:28.256Z,999.17
2022-08-07T05:46:16.107Z,999.20
2022-08-07T05:47:18.736Z,999.21
2022-08-07T05:48:15.081Z,999.23
2022-08-07T05:49:15.081Z,999.22
2022-08-07T05:50:15.069Z,999.24
2022-08-07T05:51:15.150Z,999.24
2022-08-07T05:52:15.030Z,999.30
2022-08-07T05:54:12.272Z,999.28
2022-08-07T05:54:30.623Z,999.24
2022-08-07T05:55:16.029Z,999.31
2022-08-07T05:56:15.188Z,999.24
2022-08-07T05:57:14.979Z,999.22
2022-08-07T05:58:14.971Z,999.23
2022-08-07T05:59:14.977Z,999.25
2022-08-07T06:00:16.643Z,999.23
2022-08-07T06:01:15.322Z,999.29
2022-08-07T06:02:18.780Z,999.28
2022-08-07T06:03:15.931Z,999.25
2022-08-07T06:04:14.920Z,999.29
2022-08-07T06:05:15.739Z,999.27
2022-08-07T06:06:17.484Z,999.28
2022-08-07T06:07:23.043Z,999.27
2022-08-07T06:08:30.971Z,999.24
2022-08-07T06:09:15.911Z,999.26
2022-08-07T06:10:15.143Z,999.26
2022-08-07T06:11:14.860Z,999.25
2022-08-07T06:12:15.312Z,999.25
2022-08-07T06:13:15.507Z,999.23
2022-08-07T06:14:20.988Z,999.22
2022-08-07T06:15:16.067Z,999.24
2022-08-07T06:16:14.910Z,999.24
2022-08-07T06:17:14.791Z,999.18
2022-08-07T06:18:14.772Z,999.22
2022-08-07T06:19:17.991Z,999.28
2022-08-07T06:20:32.152Z,999.22
2022-08-07T06:22:14.587Z,999.22
2022-08-07T06:22:23.962Z,999.22
2022-08-07T06:23:46.337Z,999.23
2022-08-07T06:24:45.763Z,999.26
2022-08-07T06:25:15.702Z,999.23
2022-08-07T06:26:16.523Z,999.21
2022-08-07T06:27:14.714Z,999.22
2022-08-07T06:28:15.674Z,999.24
2022-08-07T06:29:15.675Z,999.21
2022-08-07T06:30:35.105Z,999.19
2022-08-07T06:31:15.655Z,999.22
2022-08-07T06:32:14.645Z,999.25
2022-08-07T06:33:16.334Z,999.26
2022-08-07T06:34:14.621Z,999.23
2022-08-07T06:35:18.106Z,999.22
2022-08-07T06:36:14.593Z,999.26
2022-08-07T06:37:17.223Z,999.26
2022-08-07T06:38:20.366Z,999.17
2022-08-07T06:40:17.638Z,999.16
2022-08-07T06:40:21.020Z,999.14
2022-08-07T06:41:15.722Z,999.15
2022-08-07T06:42:15.537Z,999.15
2022-08-07T06:43:21.254Z,999.22
2022-08-07T06:44:16.284Z,999.17
2022-08-07T06:45:18.012Z,999.16
2022-08-07T06:46:14.496Z,999.19
2022-08-07T06:47:15.379Z,999.17
2022-08-07T06:48:14.485Z,999.13
2022-08-07T06:49:14.466Z,999.15
2022-08-07T06:50:14.454Z,999.17
2022-08-07T06:51:15.422Z,999.19
2022-08-07T06:52:15.445Z,999.15
2022-08-07T06:54:12.131Z,999.14
2022-08-07T06:55:29.494Z,999.15
2022-08-07T06:55:34.451Z,999.15
2022-08-07T06:56:15.977Z,999.15
2022-08-07T06:57:14.685Z,999.15
2022-08-07T06:58:14.399Z,999.13
2022-08-07T07:00:17.429Z,999.09
2022-08-07T07:00:17.617Z,999.04
2022-08-07T07:01:14.522Z,999.01
2022-08-07T07:02:14.393Z,999.08
2022-08-07T07:03:17.277Z,999.10
2022-08-07T07:04:28.018Z,999.07
2022-08-07T07:06:05.080Z,999.13
2022-08-07T07:06:15.286Z,999.04
2022-08-07T07:07:19.261Z,999.06
2022-08-07T07:08:18.720Z,999.05
2022-08-07T07:09:15.286Z,999.02
2022-08-07T07:10:14.285Z,999.00
2022-08-07T07:12:07.589Z,999.04
2022-08-07T07:12:21.609Z,999.01
2022-08-07T07:13:15.226Z,999.03
2022-08-07T07:14:14.245Z,999.02
2022-08-07T07:15:23.877Z,998.99
2022-08-07T07:16:18.063Z,999.02
2022-08-07T07:17:15.987Z,999.03
2022-08-07T07:18:14.663Z,999.03
2022-08-07T07:19:55.286Z,999.04
2022-08-07T07:20:15.159Z,998.98
2022-08-07T07:21:19.662Z,998.96
2022-08-07T07:22:36.655Z,998.96
2022-08-07T07:24:06.106Z,998.93
2022-08-07T07:24:15.119Z,998.95
2022-08-07T07:26:31.281Z,998.98
2022-08-07T07:26:33.531Z,998.96
2022-08-07T07:27:15.110Z,998.98
2022-08-07T07:28:42.194Z,999.00
2022-08-07T07:29:55.842Z,998.96
2022-08-07T07:30:32.561Z,998.94
2022-08-07T07:31:17.384Z,998.91
2022-08-07T07:32:15.029Z,998.89
2022-08-07T07:33:14.027Z,998.94
2022-08-07T07:34:15.633Z,998.90
2022-08-07T07:35:14.020Z,998.93
2022-08-07T07:36:17.415Z,998.90
2022-08-07T07:37:44.268Z,998.90
2022-08-07T07:38:14.981Z,998.89
2022-08-07T07:39:14.242Z,998.86
2022-08-07T07:40:15.199Z,998.89
2022-08-07T07:41:14.460Z,998.85
2022-08-07T07:42:19.774Z,998.84
2022-08-07T07:43:18.595Z,998.82
2022-08-07T07:44:21.315Z,998.86
2022-08-07T07:45:14.922Z,998.86
2022-08-07T07:46:50.482Z,998.80
2022-08-07T07:47:23.891Z,998.80
2022-08-07T07:48:24.398Z,998.79
2022-08-07T07:50:34.300Z,998.77
2022-08-07T07:50:35.391Z,998.73
2022-08-07T07:51:15.492Z,998.73
2022-08-07T07:52:13.843Z,998.73
2022-08-07T07:53:22.883Z,998.73
2022-08-07T07:54:14.825Z,998.73
2022-08-07T07:55:13.834Z,998.74
2022-08-07T07:56:13.825Z,998.78
2022-08-07T07:57:13.804Z,998.73
2022-08-07T07:58:13.804Z,998.73
2022-08-07T07:59:13.804Z,998.73
2022-08-07T08:00:20.739Z,998.67
2022-08-07T08:02:02.511Z,998.65
2022-08-07T08:02:22.367Z,998.66
2022-08-07T08:03:16.906Z,998.65
2022-08-07T08:04:14.778Z,998.64
2022-08-07T08:05:14.982Z,998.69
2022-08-07T08:06:13.713Z,998.65
2022-08-07T08:07:13.682Z,998.65
2022-08-07T08:08:34.481Z,998.59
2022-08-07T08:09:14.673Z,998.64
2022-08-07T08:10:14.952Z,998.63
2022-08-07T08:11:18.273Z,998.65
2022-08-07T08:12:26.603Z,998.60
2022-08-07T08:13:15.174Z,998.62
2022-08-07T08:14:13.615Z,998.60
2022-08-07T08:15:13.615Z,998.61
2022-08-07T08:16:13.626Z,998.57
2022-08-07T08:17:56.521Z,998.56
2022-08-07T08:18:17.993Z,998.57
2022-08-07T08:20:15.902Z,998.55
2022-08-07T08:20:19.057Z,998.55
2022-08-07T08:21:14.580Z,998.66
2022-08-07T08:22:13.547Z,998.60
2022-08-07T08:23:14.557Z,998.57
2022-08-07T08:24:36.049Z,998.57
2022-08-07T08:25:24.915Z,998.58
2022-08-07T08:26:14.518Z,998.55
2022-08-07T08:27:13.768Z,998.56
2022-08-07T08:28:17.014Z,998.49
2022-08-07T08:29:14.477Z,998.58
2022-08-07T08:30:17.339Z,998.52
2022-08-07T08:31:18.275Z,998.47
2022-08-07T08:32:17.987Z,998.46
2022-08-07T08:33:16.138Z,998.46
2022-08-07T08:34:27.299Z,998.47
2022-08-07T08:35:14.406Z,998.46
2022-08-07T08:36:13.407Z,998.46
2022-08-07T08:37:59.441Z,998.45
2022-08-07T08:38:14.377Z,998.44
2022-08-07T08:39:13.413Z,998.42
2022-08-07T08:40:13.449Z,998.39
2022-08-07T08:41:15.318Z,998.40
2022-08-07T08:42:13.753Z,998.44
2022-08-07T08:43:13.330Z,998.38
2022-08-07T08:44:13.330Z,998.38
2022-08-07T08:45:13.879Z,998.40
2022-08-07T08:46:13.321Z,998.35
2022-08-07T08:47:13.300Z,998.33
2022-08-07T08:48:13.310Z,998.33
2022-08-07T08:49:13.290Z,998.33
2022-08-07T08:50:17.538Z,998.32
2022-08-07T08:51:49.166Z,998.27
2022-08-07T08:52:16.660Z,998.24
2022-08-07T08:53:13.249Z,998.21
2022-08-07T08:54:13.228Z,998.27
2022-08-07T08:55:20.804Z,998.20
2022-08-07T08:56:14.286Z,998.25
2022-08-07T08:57:13.190Z,998.24
2022-08-07T08:58:13.401Z,998.23
2022-08-07T08:59:14.180Z,998.21
2022-08-07T09:00:13.701Z,998.22
2022-08-07T09:01:15.047Z,998.19
2022-08-07T09:02:14.241Z,998.14
2022-08-07T09:03:13.172Z,998.18
2022-08-07T09:04:13.352Z,998.15
2022-08-07T09:05:14.671Z,998.11
2022-08-07T09:06:13.160Z,998.13
2022-08-07T09:07:13.110Z,998.09
2022-08-07T09:08:17.833Z,998.12
2022-08-07T09:09:23.739Z,998.08
2022-08-07T09:10:14.110Z,998.10
2022-08-07T09:11:13.980Z,998.06
2022-08-07T09:13:36.844Z,998.01
2022-08-07T09:14:27.534Z,998.01
2022-08-07T09:16:24.820Z,998.02
2022-08-07T09:16:30.348Z,998.06
2022-08-07T09:17:25.614Z,998.00
2022-08-07T09:18:25.650Z,998.04
2022-08-07T09:19:51.218Z,998.05
2022-08-07T09:20:35.547Z,998.02
2022-08-07T09:21:34.429Z,998.04
2022-08-07T09:24:30.924Z,998.05
2022-08-07T09:24:32.505Z,998.08
2022-08-07T09:24:32.666Z,998.05
2022-08-07T09:25:25.538Z,998.06
2022-08-07T09:26:29.307Z,998.00
2022-08-07T09:27:24.518Z,997.99
2022-08-07T09:30:00.880Z,998.03
2022-08-07T09:30:03.833Z,997.98
2022-08-07T09:30:28.325Z,997.98
2022-08-07T09:31:24.467Z,997.99
2022-08-07T09:32:24.489Z,997.97
2022-08-07T09:33:52.727Z,997.98
2022-08-07T09:34:26.264Z,997.94
2022-08-07T09:36:03.238Z,997.94
2022-08-07T09:36:26.978Z,997.96
2022-08-07T09:37:47.736Z,997.91
2022-08-07T09:38:25.437Z,997.99
2022-08-07T09:39:53.121Z,997.92
2022-08-07T09:40:25.443Z,997.97
2022-08-07T09:41:24.400Z,997.90
2022-08-07T09:42:25.028Z,997.89
2022-08-07T09:43:40.082Z,997.90
2022-08-07T09:44:32.919Z,997.88
2022-08-07T09:47:26.103Z,997.89
2022-08-07T09:47:51.998Z,997.85
2022-08-07T09:47:58.190Z,997.85
2022-08-07T09:48:30.098Z,997.86
2022-08-07T09:50:02.402Z,997.83
2022-08-07T09:50:26.528Z,997.82
2022-08-07T09:52:16.849Z,997.81
2022-08-07T09:52:34.131Z,997.79
2022-08-07T09:53:25.260Z,997.81
2022-08-07T09:54:27.199Z,997.81
2022-08-07T09:55:29.900Z,997.79
2022-08-07T09:56:34.055Z,997.77
2022-08-07T09:57:25.220Z,997.78
2022-08-07T09:58:32.036Z,997.76
2022-08-07T09:59:35.660Z,997.78
2022-08-07T10:00:31.922Z,997.71
2022-08-07T10:01:51.881Z,997.68
2022-08-07T10:02:29.842Z,997.63
2022-08-07T10:04:05.808Z,997.61
2022-08-07T10:04:28.270Z,997.57
2022-08-07T10:05:29.753Z,997.53
2022-08-07T10:06:25.237Z,997.56
2022-08-07T10:07:26.286Z,997.48
2022-08-07T10:08:25.122Z,997.47
2022-08-07T10:09:34.530Z,997.42
2022-08-07T10:10:25.281Z,997.42
2022-08-07T10:12:01.963Z,997.46
2022-08-07T10:12:26.355Z,997.44
2022-08-07T10:13:55.053Z,997.39
2022-08-07T10:14:30.328Z,997.38
2022-08-07T10:15:25.061Z,997.39
2022-08-07T10:16:24.356Z,997.41
2022-08-07T10:17:24.081Z,997.36
2022-08-07T10:18:26.314Z,997.38
2022-08-07T10:19:24.032Z,997.32
2022-08-07T10:20:30.327Z,997.31
2022-08-07T10:22:12.387Z,997.27
2022-08-07T10:22:33.792Z,997.24
2022-08-07T10:24:04.933Z,997.30
2022-08-07T10:24:24.984Z,997.29
2022-08-07T10:25:23.953Z,997.24
2022-08-07T10:26:25.027Z,997.27
2022-08-07T10:27:23.932Z,997.25
2022-08-07T10:28:23.951Z,997.23
2022-08-07T10:29:23.916Z,997.23
2022-08-07T10:30:25.034Z,997.20
2022-08-07T10:31:23.897Z,997.17
2022-08-07T10:32:36.992Z,997.23
2022-08-07T10:34:06.060Z,997.18
2022-08-07T10:34:27.210Z,997.17
2022-08-07T10:35:25.466Z,997.22
2022-08-07T10:36:29.258Z,997.14
2022-08-07T10:37:48.426Z,997.18
2022-08-07T10:38:41.360Z,997.13
2022-08-07T10:39:25.662Z,997.12
2022-08-07T10:40:30.305Z,997.13
2022-08-07T10:41:51.400Z,997.09
2022-08-07T10:42:31.102Z,997.05
2022-08-07T10:43:34.339Z,997.11
2022-08-07T10:44:38.029Z,997.06
2022-08-07T10:45:45.453Z,997.09
2022-08-07T10:46:24.746Z,997.04
2022-08-07T10:47:26.786Z,997.02
2022-08-07T10:48:24.726Z,997.07
2022-08-07T10:49:49.671Z,997.00
2022-08-07T10:50:26.269Z,997.04
2022-08-07T10:51:39.283Z,997.00
2022-08-07T10:52:33.547Z,996.97
2022-08-07T10:53:24.687Z,996.98
2022-08-07T10:54:23.669Z,997.04
2022-08-07T10:55:37.007Z,996.96
2022-08-07T10:56:31.358Z,996.92
2022-08-07T10:57:34.500Z,996.94
2022-08-07T10:58:24.969Z,996.94
2022-08-07T10:59:24.663Z,996.90
2022-08-07T11:00:36.381Z,996.87
2022-08-07T11:01:24.739Z,996.92
2022-08-07T11:02:32.856Z,996.89
2022-08-07T11:03:28.102Z,996.86
2022-08-07T11:04:32.096Z,996.86
2022-08-07T11:05:24.558Z,996.84
2022-08-07T11:06:26.888Z,996.83
2022-08-07T11:07:56.502Z,996.87
2022-08-07T11:08:30.281Z,996.91
2022-08-07T11:10:08.893Z,996.87
2022-08-07T11:10:27.519Z,996.89
2022-08-07T11:11:23.712Z,996.85
2022-08-07T11:12:32.211Z,996.88
2022-08-07T11:14:42.749Z,996.87
2022-08-07T11:14:44.577Z,996.87
2022-08-07T11:15:26.366Z,996.84
2022-08-07T11:16:29.787Z,996.78
2022-08-07T11:17:43.416Z,996.76
2022-08-07T11:18:24.540Z,996.73
2022-08-07T11:19:27.081Z,996.70
2022-08-07T11:20:24.592Z,996.69
2022-08-07T11:21:23.400Z,996.67
2022-08-07T11:22:32.334Z,996.74
2022-08-07T11:23:26.282Z,996.66
2022-08-07T11:24:24.380Z,996.67
2022-08-07T11:25:23.397Z,996.66
2022-08-07T11:26:23.423Z,996.65
2022-08-07T11:28:01.664Z,996.61
2022-08-07T11:28:24.683Z,996.69
2022-08-07T11:29:41.948Z,996.67
2022-08-07T11:30:42.027Z,996.65
2022-08-07T11:31:24.332Z,996.61
2022-08-07T11:32:26.156Z,996.59
2022-08-07T11:33:59.123Z,996.55
2022-08-07T11:34:24.281Z,996.52
2022-08-07T11:35:25.101Z,996.56
2022-08-07T11:36:30.635Z,996.59
2022-08-07T11:37:24.446Z,996.53
2022-08-07T11:38:28.109Z,996.58
2022-08-07T11:39:23.375Z,996.53
2022-08-07T11:40:23.380Z,996.50
2022-08-07T11:41:29.705Z,996.46
2022-08-07T11:42:29.469Z,996.44
2022-08-07T11:43:41.518Z,996.47
2022-08-07T11:44:24.162Z,996.48
2022-08-07T11:45:23.728Z,996.43
2022-08-07T11:46:24.145Z,996.41
2022-08-07T11:47:23.151Z,996.42
2022-08-07T11:48:29.451Z,996.41
2022-08-07T11:49:27.888Z,996.37
2022-08-07T11:50:32.248Z,996.36
2022-08-07T11:51:41.588Z,996.36
2022-08-07T11:52:29.086Z,996.35
2022-08-07T11:53:25.321Z,996.36
2022-08-07T11:54:25.446Z,996.31
2022-08-07T11:56:25.235Z,996.26
2022-08-07T11:56:27.220Z,996.29
2022-08-07T11:57:50.965Z,996.33
2022-08-07T11:58:33.225Z,996.29
2022-08-07T12:00:11.106Z,996.30
2022-08-07T12:00:28.309Z,996.37
2022-08-07T12:01:23.005Z,996.34
2022-08-07T12:02:30.463Z,996.31
2022-08-07T12:03:42.269Z,996.32
2022-08-07T12:04:24.320Z,996.36
2022-08-07T12:05:28.952Z,996.34
2022-08-07T12:06:37.430Z,996.27
2022-08-07T12:07:38.772Z,996.26
2022-08-07T12:08:31.363Z,996.26
2022-08-07T12:09:25.639Z,996.22
2022-08-07T12:10:23.145Z,996.24
2022-08-07T12:11:22.972Z,996.27
2022-08-07T12:12:22.898Z,996.19
2022-08-07T12:13:35.303Z,996.20
2022-08-07T12:14:23.902Z,996.15
2022-08-07T12:15:46.231Z,996.16
2022-08-07T12:16:30.025Z,996.10
2022-08-07T12:17:23.877Z,996.11
2022-08-07T12:18:29.740Z,996.09
2022-08-07T12:19:23.828Z,996.12
2022-08-07T12:20:30.827Z,996.10
2022-08-07T12:22:36.701Z,996.09
2022-08-07T12:22:38.819Z,996.07
2022-08-07T12:24:05.537Z,996.04
2022-08-07T12:24:37.411Z,996.02
2022-08-07T12:26:05.759Z,996.02
2022-08-07T12:26:30.367Z,996.02
2022-08-07T12:27:28.173Z,996.06
2022-08-07T12:28:24.066Z,996.06
2022-08-07T12:29:37.627Z,996.08
2022-08-07T12:30:23.720Z,996.11